Meteo Giornale » Osservazioni meteo Ungheria » Kecskemet

ore: 19:45 - Osservazioni Meteo Kecskemet
Lat. 46° 55' N Lon. 19° 45' E Alt. 113 metri s.l.m.

sereno Europe/Budapest

15 °C

Sereno

Temp. 24 Ore

13 °C

23 °C

Nord

3.7 Km/h

Dew point 2 °C

Umidità 41 %

Visibilità  10 Km

Il sole sorge alle ore 06:21

Il sole tramonta alle ore 18:48

Data e Ora Cielo e Fenomeni T °C DP °C Um. % Pres. hPa Vis. km Vento km/h
Oggi h: 19:45 sereno Sereno 15 2 41 1024 10 N 3.7
Oggi h: 19:15 sereno Sereno 15 2 41 1024 10 NE 7.4
Oggi h: 18:45 sereno Sereno 18 -0 29 1024 10 N 3.7
Oggi h: 17:45 sereno Sereno 20 -3 20 1023 10 NE 18.5
Oggi h: 17:15 sereno Sereno 21 -3 19 1024 10 NE 22.2
Oggi h: 16:45 sereno Sereno 21 -3 19 1023 10 NE 22.2
Oggi h: 16:15 sereno Sereno 22 -4 17 1023 10 N/NE 22.2
Oggi h: 15:45 sereno Sereno 22 -4 17 1023 10 N/NE 29.6
Oggi h: 15:15 sereno Sereno 22 -4 17 1023 10 NE 29.6
Oggi h: 14:45 sereno Sereno 22 -3 18 1023 10 N 25.9
Oggi h: 13:45 sereno Sereno 22 -2 19 1024 10 N/NE 22.2
Oggi h: 13:15 sereno Sereno 21 -2 21 1024 10 N/NE 22.2
Oggi h: 12:45 sereno Sereno 20 1 28 1024 10 N/NE 22.2
Oggi h: 12:15 sereno Sereno 20 -0 26 1025 10 N 18.5
Oggi h: 11:45 sereno Sereno 19 1 29 1025 10 N/NE 22.2
Oggi h: 11:15 sereno Sereno 18 1 31 1025 10 NE 25.9
Oggi h: 10:45 sereno Sereno 18 2 34 1025 10 N/NE 25.9
Oggi h: 10:15 sereno Sereno 17 3 39 1025 10 N/NE 25.9
Oggi h: 09:45 sereno Sereno 16 4 44 1024 10 N/NE 18.5
Oggi h: 09:15 sereno Sereno 16 4 44 1024 10 NE 18.5
Oggi h: 08:45 molto_nuvoloso Molto Nuvoloso 15 4 47 1024 10 NE 18.5
Oggi h: 08:15 molto_nuvoloso Molto Nuvoloso 15 4 47 1024 10 NE 22.2
Oggi h: 07:45 molto_nuvoloso Molto Nuvoloso 14 4 50 1024 10 NE 29.6
Oggi h: 07:36 molto_nuvoloso Molto Nuvoloso 14 4 50 1024 10 NE 25.9
Oggi h: 07:15 molto_nuvoloso Molto Nuvoloso 14 4 50 1023 10 NE 25.9
Oggi h: 06:45 molto_nuvoloso Molto Nuvoloso 14 5 54 1023 10 NE 25.9
Oggi h: 06:15 molto_nuvoloso Molto Nuvoloso 14 5 54 1023 10 N/NE 14.8
Oggi h: 05:45 sereno Sereno 13 6 62 1023 10 N/NE 7.4
Oggi h: 05:15 sereno Sereno 14 6 58 1022 10 NE 14.8
Oggi h: 04:45 sereno Sereno 14 7 62 1022 10 NE 11.1
Oggi h: 04:15 sereno Sereno 14 8 67 1022 10 NE 7.4
Oggi h: 03:45 sereno Sereno 15 8 62 1022 10 NE 7.4
Oggi h: 03:15 sereno Sereno 15 8 62 1022 10 N/NE 11.1
Oggi h: 02:45 sereno Sereno 16 8 58 1022 10 NE 14.8
Oggi h: 02:15 sereno Sereno 16 9 63 1022 10 NE 14.8
Oggi h: 01:45 sereno Sereno 16 9 63 1022 10 NE 18.5
Oggi h: 01:15 sereno Sereno 16 10 67 1021 10 NE 18.5
Oggi h: 00:45 sereno Sereno 17 10 63 1021 10 E/NE 22.2
Oggi h: 00:15 sereno Sereno 16 11 72 1021 10 E/NE 14.8
Ieri h: 23:45 sereno Sereno 17 11 67 1021 10 E/NE 18.5
Ieri h: 23:15 sereno Sereno 18 12 67 1021 10 E/NE 22.2
Ieri h: 22:45 sereno Sereno 19 13 68 1020 10 E 22.2
Ieri h: 22:15 sereno Sereno 20 14 68 1020 10 E/NE 14.8
Ieri h: 21:45 sereno Sereno 21 14 64 1020 10 E/NE 22.2
Ieri h: 21:15 sereno Sereno 22 14 60 1019 10 O/NO 25.9
Ieri h: 20:45 sereno Sereno 23 14 56 1019 10 O/NO 22.2